createdAt,value
2018-07-23T00:00:29.000Z,33
2018-07-23T00:01:29.000Z,33
2018-07-23T00:02:29.000Z,33
2018-07-23T00:03:29.000Z,33
2018-07-23T00:04:29.000Z,33
2018-07-23T00:05:29.000Z,33
2018-07-23T00:06:29.000Z,33
2018-07-23T00:08:29.000Z,33
2018-07-23T00:09:29.000Z,33
2018-07-23T00:10:29.000Z,33
2018-07-23T00:11:29.000Z,33
2018-07-23T00:12:29.000Z,33
2018-07-23T00:13:29.000Z,33
2018-07-23T00:14:29.000Z,33
2018-07-23T00:15:29.000Z,33
2018-07-23T00:16:29.000Z,33
2018-07-23T00:18:29.000Z,32
2018-07-23T00:19:29.000Z,33
2018-07-23T00:20:30.000Z,33
2018-07-23T00:21:30.000Z,33
2018-07-23T00:22:30.000Z,33
2018-07-23T00:23:30.000Z,33
2018-07-23T00:24:30.000Z,33
2018-07-23T00:25:30.000Z,33
2018-07-23T00:26:30.000Z,33
2018-07-23T00:28:30.000Z,32
2018-07-23T00:29:30.000Z,33
2018-07-23T00:31:30.000Z,32
2018-07-23T00:32:30.000Z,33
2018-07-23T00:34:30.000Z,32
2018-07-23T00:35:30.000Z,33
2018-07-23T00:36:30.000Z,32
2018-07-23T00:37:30.000Z,33
2018-07-23T00:38:30.000Z,32
2018-07-23T00:39:30.000Z,33
2018-07-23T00:40:30.000Z,33
2018-07-23T00:41:30.000Z,33
2018-07-23T00:43:30.000Z,33
2018-07-23T00:44:30.000Z,33
2018-07-23T00:45:30.000Z,33
2018-07-23T00:46:30.000Z,33
2018-07-23T00:47:30.000Z,33
2018-07-23T00:48:30.000Z,33
2018-07-23T00:49:30.000Z,33
2018-07-23T00:50:30.000Z,33
2018-07-23T00:51:30.000Z,33
2018-07-23T00:52:30.000Z,33
2018-07-23T00:53:30.000Z,33
2018-07-23T00:54:30.000Z,33
2018-07-23T00:55:30.000Z,33
2018-07-23T00:56:30.000Z,33
2018-07-23T00:57:30.000Z,33
2018-07-23T00:58:30.000Z,33
2018-07-23T00:59:30.000Z,33
2018-07-23T01:00:30.000Z,33
2018-07-23T01:01:30.000Z,33
2018-07-23T01:02:30.000Z,33
2018-07-23T01:03:30.000Z,33
2018-07-23T01:04:30.000Z,33
2018-07-23T01:06:30.000Z,33
2018-07-23T01:07:30.000Z,33
2018-07-23T01:08:30.000Z,33
2018-07-23T01:09:30.000Z,33
2018-07-23T01:10:30.000Z,33
2018-07-23T01:11:30.000Z,33
2018-07-23T01:12:30.000Z,33
2018-07-23T01:13:30.000Z,32
2018-07-23T01:14:30.000Z,33
2018-07-23T01:15:30.000Z,33
2018-07-23T01:16:30.000Z,32
2018-07-23T01:17:30.000Z,32
2018-07-23T01:18:30.000Z,33
2018-07-23T01:19:30.000Z,32
2018-07-23T01:20:30.000Z,32
2018-07-23T01:21:30.000Z,32
2018-07-23T01:22:30.000Z,32
2018-07-23T01:23:30.000Z,32
2018-07-23T01:25:30.000Z,32
2018-07-23T01:26:30.000Z,33
2018-07-23T01:27:30.000Z,33
2018-07-23T01:28:30.000Z,33
2018-07-23T01:29:30.000Z,33
2018-07-23T01:30:30.000Z,33
2018-07-23T01:32:30.000Z,32
2018-07-23T01:33:30.000Z,33
2018-07-23T01:34:30.000Z,33
2018-07-23T01:35:30.000Z,32
2018-07-23T01:36:30.000Z,33
2018-07-23T01:37:30.000Z,33
2018-07-23T01:38:30.000Z,32
2018-07-23T01:39:30.000Z,32
2018-07-23T01:40:30.000Z,33
2018-07-23T01:41:30.000Z,33
2018-07-23T01:42:30.000Z,32
2018-07-23T01:43:30.000Z,32
2018-07-23T01:44:30.000Z,32
2018-07-23T01:45:30.000Z,32
2018-07-23T01:46:30.000Z,32
2018-07-23T01:47:30.000Z,32
2018-07-23T01:48:30.000Z,32
2018-07-23T01:50:30.000Z,32
2018-07-23T01:51:30.000Z,32
2018-07-23T01:52:30.000Z,32
2018-07-23T01:53:30.000Z,32
2018-07-23T01:54:30.000Z,32
2018-07-23T01:55:30.000Z,32
2018-07-23T01:56:30.000Z,32
2018-07-23T01:57:30.000Z,32
2018-07-23T01:58:30.000Z,32
2018-07-23T01:59:30.000Z,32
2018-07-23T02:00:30.000Z,32
2018-07-23T02:01:30.000Z,32
2018-07-23T02:02:30.000Z,32
2018-07-23T02:03:30.000Z,32
2018-07-23T02:04:30.000Z,32
2018-07-23T02:05:30.000Z,32
2018-07-23T02:06:30.000Z,32
2018-07-23T02:07:30.000Z,32
2018-07-23T02:09:30.000Z,32
2018-07-23T02:11:30.000Z,32
2018-07-23T02:12:30.000Z,32
2018-07-23T02:13:30.000Z,33
2018-07-23T02:14:30.000Z,32
2018-07-23T02:15:30.000Z,33
2018-07-23T02:16:30.000Z,32
2018-07-23T02:17:30.000Z,33
2018-07-23T02:18:30.000Z,33
2018-07-23T02:19:30.000Z,33
2018-07-23T02:21:30.000Z,32
2018-07-23T02:22:30.000Z,33
2018-07-23T02:23:30.000Z,33
2018-07-23T02:24:30.000Z,33
2018-07-23T02:25:30.000Z,33
2018-07-23T02:26:30.000Z,33
2018-07-23T02:27:30.000Z,33
2018-07-23T02:28:30.000Z,33
2018-07-23T02:29:30.000Z,33
2018-07-23T02:30:30.000Z,33
2018-07-23T02:31:30.000Z,33
2018-07-23T02:32:30.000Z,32
2018-07-23T02:33:30.000Z,32
2018-07-23T02:34:30.000Z,33
2018-07-23T02:35:30.000Z,32
2018-07-23T02:36:30.000Z,33
2018-07-23T02:37:30.000Z,32
2018-07-23T02:38:30.000Z,33
2018-07-23T02:40:30.000Z,33
2018-07-23T02:41:30.000Z,33
2018-07-23T02:42:30.000Z,33
2018-07-23T02:44:30.000Z,33
2018-07-23T02:45:30.000Z,33
2018-07-23T02:46:30.000Z,33
2018-07-23T02:47:30.000Z,33
2018-07-23T02:48:30.000Z,33
2018-07-23T02:49:30.000Z,33
2018-07-23T02:51:30.000Z,32
2018-07-23T02:52:30.000Z,33
2018-07-23T02:54:30.000Z,32
2018-07-23T02:55:30.000Z,33
2018-07-23T02:56:30.000Z,32
2018-07-23T02:58:30.000Z,32
2018-07-23T02:59:30.000Z,33
2018-07-23T03:00:30.000Z,33
2018-07-23T03:01:30.000Z,33
2018-07-23T03:02:30.000Z,33
2018-07-23T03:03:30.000Z,33
2018-07-23T03:04:30.000Z,33
2018-07-23T03:05:30.000Z,33
2018-07-23T03:06:30.000Z,33
2018-07-23T03:07:30.000Z,33
2018-07-23T03:08:30.000Z,33
2018-07-23T03:09:30.000Z,33
2018-07-23T03:10:30.000Z,33
2018-07-23T03:11:30.000Z,33
2018-07-23T03:12:30.000Z,33
2018-07-23T03:13:30.000Z,33
2018-07-23T03:14:30.000Z,33
2018-07-23T03:16:30.000Z,33
2018-07-23T03:17:30.000Z,33
2018-07-23T03:19:30.000Z,33
2018-07-23T03:20:30.000Z,33
2018-07-23T03:21:30.000Z,33
2018-07-23T03:22:30.000Z,33
2018-07-23T03:24:30.000Z,34
2018-07-23T03:25:30.000Z,34
2018-07-23T03:26:30.000Z,34
2018-07-23T03:27:30.000Z,34
2018-07-23T03:28:30.000Z,35
2018-07-23T03:29:30.000Z,35
2018-07-23T03:31:30.000Z,35
2018-07-23T03:32:30.000Z,35
2018-07-23T03:34:30.000Z,35
2018-07-23T03:35:30.000Z,35
2018-07-23T03:36:30.000Z,35
2018-07-23T03:37:30.000Z,35
2018-07-23T03:38:30.000Z,35
2018-07-23T03:39:30.000Z,35
2018-07-23T03:40:30.000Z,35
2018-07-23T03:41:30.000Z,35
2018-07-23T03:42:30.000Z,35
2018-07-23T03:43:30.000Z,35
2018-07-23T03:45:30.000Z,35
2018-07-23T03:46:30.000Z,35
2018-07-23T03:47:30.000Z,35
2018-07-23T03:48:30.000Z,35
2018-07-23T03:50:30.000Z,35
2018-07-23T03:51:30.000Z,35
2018-07-23T03:52:30.000Z,35
2018-07-23T03:53:30.000Z,35
2018-07-23T03:54:30.000Z,35
2018-07-23T03:55:30.000Z,35
2018-07-23T03:56:30.000Z,35
2018-07-23T03:57:30.000Z,35
2018-07-23T03:58:30.000Z,35
2018-07-23T03:59:30.000Z,35
2018-07-23T04:00:30.000Z,35
2018-07-23T04:01:30.000Z,35
2018-07-23T04:03:30.000Z,35
2018-07-23T04:04:30.000Z,35
2018-07-23T04:05:30.000Z,35
2018-07-23T04:06:30.000Z,35
2018-07-23T04:07:30.000Z,35
2018-07-23T04:09:30.000Z,34
2018-07-23T04:10:30.000Z,35
2018-07-23T04:11:30.000Z,35
2018-07-23T04:13:30.000Z,35
2018-07-23T04:14:30.000Z,35
2018-07-23T04:15:30.000Z,35
2018-07-23T04:16:30.000Z,34
2018-07-23T04:17:30.000Z,34
2018-07-23T04:18:30.000Z,34
2018-07-23T04:19:30.000Z,34
2018-07-23T04:20:30.000Z,34
2018-07-23T04:21:30.000Z,34
2018-07-23T04:22:30.000Z,34
2018-07-23T04:23:30.000Z,34
2018-07-23T04:24:30.000Z,34
2018-07-23T04:25:30.000Z,34
2018-07-23T04:26:30.000Z,34
2018-07-23T04:28:30.000Z,34
2018-07-23T04:29:30.000Z,34
2018-07-23T04:30:30.000Z,34
2018-07-23T04:31:30.000Z,34
2018-07-23T04:32:30.000Z,34
2018-07-23T04:33:30.000Z,35
2018-07-23T04:35:29.000Z,35
2018-07-23T04:36:29.000Z,35
2018-07-23T04:37:29.000Z,35
2018-07-23T04:38:29.000Z,36
2018-07-23T04:39:29.000Z,36
2018-07-23T04:40:29.000Z,37
2018-07-23T04:41:29.000Z,37
2018-07-23T04:42:29.000Z,37
2018-07-23T04:43:29.000Z,37
2018-07-23T04:45:29.000Z,37
2018-07-23T04:46:29.000Z,37
2018-07-23T04:47:29.000Z,38
2018-07-23T04:48:29.000Z,37
2018-07-23T04:49:29.000Z,38
2018-07-23T04:50:29.000Z,38
2018-07-23T04:51:29.000Z,38
2018-07-23T04:52:29.000Z,38
2018-07-23T04:53:29.000Z,38
2018-07-23T04:54:29.000Z,38
2018-07-23T04:56:29.000Z,38
2018-07-23T04:58:29.000Z,38
2018-07-23T04:59:29.000Z,38
2018-07-23T05:00:29.000Z,38
2018-07-23T05:01:29.000Z,38
2018-07-23T05:02:29.000Z,38
2018-07-23T05:03:29.000Z,38
2018-07-23T05:04:29.000Z,38
2018-07-23T05:05:29.000Z,38
2018-07-23T05:06:29.000Z,39
2018-07-23T05:07:29.000Z,39
2018-07-23T05:08:29.000Z,39
2018-07-23T05:09:29.000Z,39
2018-07-23T05:10:29.000Z,39
2018-07-23T05:11:29.000Z,39
2018-07-23T05:12:29.000Z,39
2018-07-23T05:14:29.000Z,39
2018-07-23T05:15:29.000Z,40
2018-07-23T05:16:29.000Z,40
2018-07-23T05:18:29.000Z,40
2018-07-23T05:19:29.000Z,40
2018-07-23T05:20:29.000Z,40
2018-07-23T05:21:29.000Z,40
2018-07-23T05:22:29.000Z,40
2018-07-23T05:23:29.000Z,39
2018-07-23T05:24:29.000Z,39
2018-07-23T05:25:29.000Z,39
2018-07-23T05:26:29.000Z,39
2018-07-23T05:27:29.000Z,39
2018-07-23T05:28:29.000Z,39
2018-07-23T05:29:29.000Z,39
2018-07-23T05:31:29.000Z,39
2018-07-23T05:32:29.000Z,39
2018-07-23T05:33:29.000Z,39
2018-07-23T05:34:29.000Z,39
2018-07-23T05:35:29.000Z,39
2018-07-23T05:36:29.000Z,39
2018-07-23T05:37:29.000Z,39
2018-07-23T05:38:30.000Z,39
2018-07-23T05:39:30.000Z,39
2018-07-23T05:40:30.000Z,39
2018-07-23T05:41:30.000Z,38
2018-07-23T05:42:30.000Z,38
2018-07-23T05:43:30.000Z,38
2018-07-23T05:44:30.000Z,38
2018-07-23T05:45:30.000Z,39
2018-07-23T05:46:30.000Z,39
2018-07-23T05:47:30.000Z,39
2018-07-23T05:48:30.000Z,39
2018-07-23T05:49:30.000Z,39
2018-07-23T05:50:30.000Z,39
2018-07-23T05:52:30.000Z,39
2018-07-23T05:53:30.000Z,39
2018-07-23T05:54:30.000Z,39
2018-07-23T05:56:30.000Z,39
2018-07-23T05:57:30.000Z,39
2018-07-23T05:58:30.000Z,39
2018-07-23T05:59:30.000Z,39
2018-07-23T06:00:30.000Z,39
2018-07-23T06:02:30.000Z,39
2018-07-23T06:03:30.000Z,39
2018-07-23T06:04:30.000Z,39
2018-07-23T06:05:30.000Z,39
2018-07-23T06:06:30.000Z,39
2018-07-23T06:07:30.000Z,39
2018-07-23T06:08:30.000Z,39
2018-07-23T06:09:30.000Z,38
2018-07-23T06:10:30.000Z,38
2018-07-23T06:11:30.000Z,38
2018-07-23T06:12:30.000Z,38
2018-07-23T06:13:30.000Z,38
2018-07-23T06:14:30.000Z,38
2018-07-23T06:15:30.000Z,38
2018-07-23T06:16:30.000Z,38
2018-07-23T06:18:30.000Z,39
2018-07-23T06:19:30.000Z,39
2018-07-23T06:20:30.000Z,39
2018-07-23T06:22:30.000Z,39
2018-07-23T06:23:30.000Z,40
2018-07-23T06:24:30.000Z,40
2018-07-23T06:25:30.000Z,40
2018-07-23T06:26:30.000Z,40
2018-07-23T06:27:30.000Z,40
2018-07-23T06:28:30.000Z,40
2018-07-23T06:29:30.000Z,41
2018-07-23T06:31:30.000Z,40
2018-07-23T06:32:30.000Z,40
2018-07-23T06:33:30.000Z,40
2018-07-23T06:35:30.000Z,40
2018-07-23T06:36:30.000Z,40
2018-07-23T06:37:30.000Z,40
2018-07-23T06:38:30.000Z,40
2018-07-23T06:40:30.000Z,40
2018-07-23T06:41:30.000Z,40
2018-07-23T06:42:30.000Z,40
2018-07-23T06:43:30.000Z,40
2018-07-23T06:44:30.000Z,40
2018-07-23T06:45:30.000Z,40
2018-07-23T06:46:30.000Z,40
2018-07-23T06:47:30.000Z,40
2018-07-23T06:48:30.000Z,40
2018-07-23T06:49:30.000Z,40
2018-07-23T06:50:30.000Z,40
2018-07-23T06:51:30.000Z,40
2018-07-23T06:52:30.000Z,40
2018-07-23T06:53:30.000Z,40
2018-07-23T06:54:30.000Z,40
2018-07-23T06:55:30.000Z,40
2018-07-23T06:56:30.000Z,40
2018-07-23T06:57:30.000Z,40
2018-07-23T06:59:30.000Z,39
2018-07-23T07:00:30.000Z,39
2018-07-23T07:02:30.000Z,39
2018-07-23T07:03:30.000Z,39
2018-07-23T07:04:30.000Z,39
2018-07-23T07:05:30.000Z,39
2018-07-23T07:06:30.000Z,39
2018-07-23T07:07:30.000Z,39
2018-07-23T07:08:30.000Z,39
2018-07-23T07:09:30.000Z,39
2018-07-23T07:10:30.000Z,38
2018-07-23T07:11:30.000Z,38
2018-07-23T07:13:30.000Z,38
2018-07-23T07:14:30.000Z,38
2018-07-23T07:15:30.000Z,38
2018-07-23T07:16:30.000Z,38
2018-07-23T07:17:30.000Z,38
2018-07-23T07:18:30.000Z,37
2018-07-23T07:19:30.000Z,37
2018-07-23T07:20:30.000Z,37
2018-07-23T07:21:30.000Z,37
2018-07-23T07:22:30.000Z,37
2018-07-23T07:23:30.000Z,37
2018-07-23T07:24:30.000Z,37
2018-07-23T07:25:30.000Z,37
2018-07-23T07:26:30.000Z,37
2018-07-23T07:27:30.000Z,37
2018-07-23T07:28:30.000Z,37
2018-07-23T07:29:30.000Z,37
2018-07-23T07:31:30.000Z,37
2018-07-23T07:32:30.000Z,37
2018-07-23T07:33:30.000Z,38
2018-07-23T07:34:30.000Z,37
2018-07-23T07:35:30.000Z,38
2018-07-23T07:36:30.000Z,38
2018-07-23T07:37:30.000Z,37
2018-07-23T07:38:30.000Z,37
2018-07-23T07:39:30.000Z,37
2018-07-23T07:40:30.000Z,37
2018-07-23T07:41:30.000Z,37
2018-07-23T07:42:30.000Z,37
2018-07-23T07:44:30.000Z,37
2018-07-23T07:45:30.000Z,37
2018-07-23T07:46:30.000Z,37
2018-07-23T07:47:30.000Z,37
2018-07-23T07:48:30.000Z,37
2018-07-23T07:50:30.000Z,37
2018-07-23T07:51:30.000Z,37
2018-07-23T07:52:30.000Z,37
2018-07-23T07:53:30.000Z,37
2018-07-23T07:54:30.000Z,36
2018-07-23T07:55:30.000Z,36
2018-07-23T07:56:30.000Z,36
2018-07-23T07:57:30.000Z,36
2018-07-23T07:58:30.000Z,36
2018-07-23T07:59:30.000Z,36
2018-07-23T08:00:30.000Z,36
2018-07-23T08:01:30.000Z,36
2018-07-23T08:02:30.000Z,36
2018-07-23T08:03:30.000Z,36
2018-07-23T08:04:30.000Z,36
2018-07-23T08:05:30.000Z,35
2018-07-23T08:06:30.000Z,35
2018-07-23T08:07:30.000Z,35
2018-07-23T08:09:30.000Z,35
2018-07-23T08:10:30.000Z,35
2018-07-23T08:11:30.000Z,36
2018-07-23T08:12:30.000Z,36
2018-07-23T08:13:30.000Z,35
2018-07-23T08:14:30.000Z,35
2018-07-23T08:16:30.000Z,35
2018-07-23T08:17:30.000Z,35
2018-07-23T08:19:30.000Z,35
2018-07-23T08:20:30.000Z,35
2018-07-23T08:21:30.000Z,35
2018-07-23T08:22:30.000Z,35
2018-07-23T08:23:30.000Z,35
2018-07-23T08:24:30.000Z,35
2018-07-23T08:26:30.000Z,34
2018-07-23T08:27:30.000Z,35
2018-07-23T08:28:30.000Z,35
2018-07-23T08:29:30.000Z,35
2018-07-23T08:30:30.000Z,34
2018-07-23T08:32:30.000Z,34
2018-07-23T08:33:30.000Z,34
2018-07-23T08:34:30.000Z,34
2018-07-23T08:35:30.000Z,33
2018-07-23T08:36:30.000Z,33
2018-07-23T08:37:30.000Z,33
2018-07-23T08:39:30.000Z,33
2018-07-23T08:40:30.000Z,33
2018-07-23T08:41:30.000Z,33
2018-07-23T08:42:30.000Z,33
2018-07-23T08:43:30.000Z,33
2018-07-23T08:44:30.000Z,33
2018-07-23T08:45:30.000Z,34
2018-07-23T08:46:30.000Z,34
2018-07-23T08:47:30.000Z,34
2018-07-23T08:48:29.000Z,34
2018-07-23T08:49:29.000Z,34
2018-07-23T08:50:29.000Z,34
2018-07-23T08:51:29.000Z,34
2018-07-23T08:52:29.000Z,34
2018-07-23T08:54:29.000Z,34
2018-07-23T08:55:29.000Z,34
2018-07-23T08:57:29.000Z,34
2018-07-23T08:58:29.000Z,35
2018-07-23T08:59:29.000Z,35
2018-07-23T09:00:29.000Z,35
2018-07-23T09:01:29.000Z,35
2018-07-23T09:02:29.000Z,35
2018-07-23T09:03:29.000Z,35
2018-07-23T09:04:29.000Z,35
2018-07-23T09:05:29.000Z,35
2018-07-23T09:06:29.000Z,35
2018-07-23T09:07:29.000Z,35
2018-07-23T09:08:29.000Z,35
2018-07-23T09:09:29.000Z,35
2018-07-23T09:10:29.000Z,35
2018-07-23T09:11:29.000Z,35
2018-07-23T09:13:29.000Z,35
2018-07-23T09:14:29.000Z,35
2018-07-23T09:15:29.000Z,35
2018-07-23T09:16:29.000Z,35
2018-07-23T09:17:29.000Z,35
2018-07-23T09:18:29.000Z,36
2018-07-23T09:19:29.000Z,35
2018-07-23T09:20:29.000Z,36
2018-07-23T09:21:29.000Z,35
2018-07-23T09:23:29.000Z,35
2018-07-23T09:24:29.000Z,36
2018-07-23T09:25:29.000Z,36
2018-07-23T09:26:29.000Z,36
2018-07-23T09:27:29.000Z,36
2018-07-23T09:28:29.000Z,36
2018-07-23T09:29:29.000Z,36
2018-07-23T09:30:29.000Z,36
2018-07-23T09:32:29.000Z,36
2018-07-23T09:33:29.000Z,36
2018-07-23T09:34:29.000Z,36
2018-07-23T09:35:29.000Z,36
2018-07-23T09:36:29.000Z,36
2018-07-23T09:38:29.000Z,36
2018-07-23T09:39:29.000Z,36
2018-07-23T09:40:29.000Z,36
2018-07-23T09:42:29.000Z,36
2018-07-23T09:43:29.000Z,36
2018-07-23T09:44:29.000Z,36
2018-07-23T09:46:29.000Z,36
2018-07-23T09:47:29.000Z,36
2018-07-23T09:48:29.000Z,36
2018-07-23T09:49:29.000Z,36
2018-07-23T09:51:29.000Z,36
2018-07-23T09:52:29.000Z,36
2018-07-23T09:53:29.000Z,36
2018-07-23T09:54:29.000Z,36
2018-07-23T09:55:29.000Z,36
2018-07-23T09:56:29.000Z,36
2018-07-23T09:57:29.000Z,36
2018-07-23T09:59:29.000Z,36
2018-07-23T10:00:29.000Z,36
2018-07-23T10:02:29.000Z,36
2018-07-23T10:03:29.000Z,36
2018-07-23T10:04:29.000Z,36
2018-07-23T10:05:29.000Z,36
2018-07-23T10:06:29.000Z,36
2018-07-23T10:07:29.000Z,36
2018-07-23T10:08:29.000Z,36
2018-07-23T10:09:29.000Z,36
2018-07-23T10:10:29.000Z,36
2018-07-23T10:11:29.000Z,36
2018-07-23T10:12:29.000Z,36
2018-07-23T10:13:29.000Z,36
2018-07-23T10:14:29.000Z,36
2018-07-23T10:15:29.000Z,36
2018-07-23T10:16:29.000Z,36
2018-07-23T10:18:29.000Z,36
2018-07-23T10:19:29.000Z,36
2018-07-23T10:20:29.000Z,36
2018-07-23T10:22:29.000Z,36
2018-07-23T10:23:29.000Z,36
2018-07-23T10:24:29.000Z,36
2018-07-23T10:25:29.000Z,36
2018-07-23T10:26:29.000Z,36
2018-07-23T10:27:29.000Z,35
2018-07-23T10:28:29.000Z,36
2018-07-23T10:29:29.000Z,36
2018-07-23T10:30:29.000Z,35
2018-07-23T10:32:29.000Z,35
2018-07-23T10:33:29.000Z,36
2018-07-23T10:34:29.000Z,36
2018-07-23T10:35:29.000Z,36
2018-07-23T10:36:29.000Z,35
2018-07-23T10:37:29.000Z,36
2018-07-23T10:38:29.000Z,36
2018-07-23T10:39:29.000Z,36
2018-07-23T10:40:29.000Z,35
2018-07-23T10:41:29.000Z,36
2018-07-23T10:43:29.000Z,36
2018-07-23T10:44:29.000Z,36
2018-07-23T10:45:29.000Z,36
2018-07-23T10:46:29.000Z,36
2018-07-23T10:47:29.000Z,36
2018-07-23T10:48:29.000Z,36
2018-07-23T10:50:29.000Z,36
2018-07-23T10:51:29.000Z,36
2018-07-23T10:52:29.000Z,36
2018-07-23T10:53:29.000Z,36
2018-07-23T10:54:29.000Z,36
2018-07-23T10:56:30.000Z,36
2018-07-23T10:57:30.000Z,36
2018-07-23T10:59:30.000Z,36
2018-07-23T11:00:30.000Z,36
2018-07-23T11:01:30.000Z,36
2018-07-23T11:02:30.000Z,36
2018-07-23T11:03:30.000Z,36
2018-07-23T11:04:30.000Z,36
2018-07-23T11:05:30.000Z,36
2018-07-23T11:06:30.000Z,36
2018-07-23T11:08:30.000Z,36
2018-07-23T11:09:30.000Z,36
2018-07-23T11:10:30.000Z,36
2018-07-23T11:12:30.000Z,35
2018-07-23T11:13:30.000Z,35
2018-07-23T11:15:30.000Z,35
2018-07-23T11:16:30.000Z,35
2018-07-23T11:17:30.000Z,35
2018-07-23T11:18:30.000Z,35
2018-07-23T11:19:30.000Z,35
2018-07-23T11:21:30.000Z,35
2018-07-23T11:22:30.000Z,35
2018-07-23T11:24:30.000Z,35
2018-07-23T11:25:30.000Z,35
2018-07-23T11:26:30.000Z,34
2018-07-23T11:27:30.000Z,35
2018-07-23T11:28:30.000Z,35
2018-07-23T11:29:30.000Z,35
2018-07-23T11:30:30.000Z,35
2018-07-23T11:31:30.000Z,34
2018-07-23T11:32:30.000Z,34
2018-07-23T11:33:30.000Z,34
2018-07-23T11:34:30.000Z,34
2018-07-23T11:35:30.000Z,34
2018-07-23T11:37:30.000Z,34
2018-07-23T11:38:30.000Z,34
2018-07-23T11:39:30.000Z,34
2018-07-23T11:40:30.000Z,34
2018-07-23T11:41:30.000Z,34
2018-07-23T11:42:30.000Z,34
2018-07-23T11:43:30.000Z,34
2018-07-23T11:44:30.000Z,34
2018-07-23T11:46:30.000Z,34
2018-07-23T11:47:30.000Z,34
2018-07-23T11:49:30.000Z,34
2018-07-23T11:50:30.000Z,34
2018-07-23T11:52:30.000Z,33
2018-07-23T11:53:30.000Z,34
2018-07-23T11:54:30.000Z,34
2018-07-23T11:55:30.000Z,34
2018-07-23T11:56:30.000Z,34
2018-07-23T11:57:30.000Z,34
2018-07-23T11:58:30.000Z,34
2018-07-23T12:00:30.000Z,33
2018-07-23T12:01:30.000Z,33
2018-07-23T12:02:30.000Z,33
2018-07-23T12:03:30.000Z,33
2018-07-23T12:04:30.000Z,34
2018-07-23T12:05:30.000Z,34
2018-07-23T12:06:30.000Z,34
2018-07-23T12:08:30.000Z,34
2018-07-23T12:09:30.000Z,34
2018-07-23T12:11:30.000Z,34
2018-07-23T12:12:30.000Z,34
2018-07-23T12:13:30.000Z,34
2018-07-23T12:14:30.000Z,34
2018-07-23T12:15:30.000Z,34
2018-07-23T12:16:30.000Z,34
2018-07-23T12:17:30.000Z,34
2018-07-23T12:18:30.000Z,35
2018-07-23T12:19:30.000Z,34
2018-07-23T12:20:30.000Z,35
2018-07-23T12:21:30.000Z,35
2018-07-23T12:22:30.000Z,34
2018-07-23T12:23:30.000Z,35
2018-07-23T12:24:30.000Z,34
2018-07-23T12:25:30.000Z,34
2018-07-23T12:26:30.000Z,34
2018-07-23T12:27:30.000Z,34
2018-07-23T12:28:30.000Z,34
2018-07-23T12:29:30.000Z,34
2018-07-23T12:30:30.000Z,34
2018-07-23T12:31:30.000Z,34
2018-07-23T12:32:30.000Z,34
2018-07-23T12:33:30.000Z,34
2018-07-23T12:34:30.000Z,34
2018-07-23T12:35:30.000Z,34
2018-07-23T12:36:30.000Z,34
2018-07-23T12:37:30.000Z,34
2018-07-23T12:38:30.000Z,34
2018-07-23T12:39:30.000Z,34
2018-07-23T12:40:30.000Z,35
2018-07-23T12:41:30.000Z,34
2018-07-23T12:42:30.000Z,35
2018-07-23T12:43:30.000Z,35
2018-07-23T12:44:30.000Z,35
2018-07-23T12:45:30.000Z,35
2018-07-23T12:47:30.000Z,35
2018-07-23T12:48:30.000Z,35
2018-07-23T12:50:30.000Z,35
2018-07-23T12:52:30.000Z,35
2018-07-23T12:53:30.000Z,35
2018-07-23T12:54:30.000Z,35
2018-07-23T12:55:30.000Z,35
2018-07-23T12:57:30.000Z,35
2018-07-23T12:58:30.000Z,35
2018-07-23T12:59:30.000Z,35
2018-07-23T13:00:30.000Z,35
2018-07-23T13:02:30.000Z,35
2018-07-23T13:03:30.000Z,35
2018-07-23T13:04:30.000Z,35
2018-07-23T13:05:30.000Z,35
2018-07-23T13:06:30.000Z,35
2018-07-23T13:07:30.000Z,35
2018-07-23T13:08:30.000Z,35
2018-07-23T13:09:30.000Z,35
2018-07-23T13:10:30.000Z,35
2018-07-23T13:11:30.000Z,34
2018-07-23T13:12:30.000Z,34
2018-07-23T13:13:30.000Z,34
2018-07-23T13:15:30.000Z,34
2018-07-23T13:16:30.000Z,34
2018-07-23T13:17:30.000Z,34
2018-07-23T13:19:30.000Z,34
2018-07-23T13:20:30.000Z,34
2018-07-23T13:22:30.000Z,34
2018-07-23T13:23:30.000Z,34
2018-07-23T13:25:30.000Z,34
2018-07-23T13:26:30.000Z,34
2018-07-23T13:27:30.000Z,34
2018-07-23T13:28:30.000Z,34
2018-07-23T13:29:30.000Z,34
2018-07-23T13:30:30.000Z,34
2018-07-23T13:31:30.000Z,34
2018-07-23T13:32:30.000Z,34
2018-07-23T13:33:30.000Z,34
2018-07-23T13:34:30.000Z,34
2018-07-23T13:35:30.000Z,34
2018-07-23T13:36:30.000Z,33
2018-07-23T13:37:30.000Z,33
2018-07-23T13:38:30.000Z,33
2018-07-23T13:39:30.000Z,33
2018-07-23T13:40:30.000Z,33
2018-07-23T13:41:30.000Z,33
2018-07-23T13:42:30.000Z,33
2018-07-23T13:44:30.000Z,33
2018-07-23T13:45:30.000Z,33
2018-07-23T13:46:30.000Z,33
2018-07-23T13:47:30.000Z,33
2018-07-23T13:48:30.000Z,33
2018-07-23T13:49:30.000Z,33
2018-07-23T13:50:30.000Z,33
2018-07-23T13:52:30.000Z,33
2018-07-23T13:53:30.000Z,33
2018-07-23T13:54:30.000Z,33
2018-07-23T13:55:30.000Z,33
2018-07-23T13:56:30.000Z,33
2018-07-23T13:57:30.000Z,33
2018-07-23T13:58:30.000Z,33
2018-07-23T13:59:30.000Z,33
2018-07-23T14:01:30.000Z,33
2018-07-23T14:02:30.000Z,33
2018-07-23T14:03:30.000Z,33
2018-07-23T14:04:30.000Z,33
2018-07-23T14:06:30.000Z,33
2018-07-23T14:07:30.000Z,33
2018-07-23T14:08:30.000Z,33
2018-07-23T14:09:30.000Z,33
2018-07-23T14:10:30.000Z,33
2018-07-23T14:11:30.000Z,33
2018-07-23T14:12:30.000Z,33
2018-07-23T14:13:30.000Z,33
2018-07-23T14:14:30.000Z,33
2018-07-23T14:15:30.000Z,33
2018-07-23T14:16:30.000Z,33
2018-07-23T14:17:30.000Z,33
2018-07-23T14:18:30.000Z,33
2018-07-23T14:19:30.000Z,33
2018-07-23T14:20:30.000Z,33
2018-07-23T14:21:30.000Z,33
2018-07-23T14:23:30.000Z,33
2018-07-23T14:24:30.000Z,33
2018-07-23T14:25:30.000Z,33
2018-07-23T14:26:30.000Z,33
2018-07-23T14:27:30.000Z,33
2018-07-23T14:28:30.000Z,33
2018-07-23T14:29:30.000Z,33
2018-07-23T14:30:30.000Z,33
2018-07-23T14:31:30.000Z,33
2018-07-23T14:33:30.000Z,33
2018-07-23T14:34:30.000Z,33
2018-07-23T14:35:30.000Z,33
2018-07-23T14:36:30.000Z,33
2018-07-23T14:37:30.000Z,33
2018-07-23T14:41:16.000Z,33
2018-07-23T14:42:16.000Z,33
2018-07-23T14:44:16.000Z,33
2018-07-23T14:45:16.000Z,33
2018-07-23T14:46:16.000Z,33
2018-07-23T14:47:16.000Z,33
2018-07-23T14:48:16.000Z,33
2018-07-23T14:49:16.000Z,33
2018-07-23T14:50:16.000Z,33
2018-07-23T14:51:16.000Z,33
2018-07-23T14:52:16.000Z,33
2018-07-23T14:53:16.000Z,33
2018-07-23T14:54:16.000Z,33
2018-07-23T14:55:16.000Z,33
2018-07-23T14:57:16.000Z,33
2018-07-23T14:58:16.000Z,33
2018-07-23T14:59:16.000Z,33
2018-07-23T15:00:16.000Z,33
2018-07-23T15:01:16.000Z,33
2018-07-23T15:02:16.000Z,33
2018-07-23T15:03:16.000Z,33
2018-07-23T15:04:16.000Z,33
2018-07-23T15:05:16.000Z,33
2018-07-23T15:06:16.000Z,33
2018-07-23T15:07:16.000Z,33
2018-07-23T15:08:16.000Z,33
2018-07-23T15:09:16.000Z,33
2018-07-23T15:11:15.000Z,33
2018-07-23T15:12:15.000Z,33
2018-07-23T15:13:15.000Z,33
2018-07-23T15:14:15.000Z,33
2018-07-23T15:15:15.000Z,33
2018-07-23T15:16:15.000Z,33
2018-07-23T15:17:15.000Z,33
2018-07-23T15:18:15.000Z,33
2018-07-23T15:20:15.000Z,33
2018-07-23T15:21:15.000Z,33
2018-07-23T15:22:15.000Z,33
2018-07-23T15:23:15.000Z,33
2018-07-23T15:24:15.000Z,33
2018-07-23T15:25:15.000Z,33
2018-07-23T15:26:15.000Z,33
2018-07-23T15:27:15.000Z,33
2018-07-23T15:28:15.000Z,33
2018-07-23T15:29:15.000Z,33
2018-07-23T15:30:15.000Z,33
2018-07-23T15:31:15.000Z,33
2018-07-23T15:32:15.000Z,33
2018-07-23T15:34:15.000Z,33
2018-07-23T15:35:15.000Z,33
2018-07-23T15:36:15.000Z,33
2018-07-23T15:37:15.000Z,33
2018-07-23T15:38:15.000Z,33
2018-07-23T15:39:15.000Z,33
2018-07-23T15:40:15.000Z,33
2018-07-23T15:41:15.000Z,33
2018-07-23T15:42:15.000Z,33
2018-07-23T15:43:15.000Z,33
2018-07-23T15:44:15.000Z,33
2018-07-23T15:45:15.000Z,33
2018-07-23T15:46:15.000Z,33
2018-07-23T15:48:15.000Z,33
2018-07-23T15:49:15.000Z,33
2018-07-23T15:50:15.000Z,33
2018-07-23T15:51:15.000Z,33
2018-07-23T15:52:15.000Z,33
2018-07-23T15:53:15.000Z,33
2018-07-23T15:54:15.000Z,33
2018-07-23T15:55:15.000Z,33
2018-07-23T15:57:15.000Z,33
2018-07-23T15:58:15.000Z,33
2018-07-23T15:59:15.000Z,33
2018-07-23T16:00:15.000Z,33
2018-07-23T16:02:15.000Z,33
2018-07-23T16:03:15.000Z,33
2018-07-23T16:04:15.000Z,33
2018-07-23T16:05:15.000Z,33
2018-07-23T16:06:15.000Z,33
2018-07-23T16:07:15.000Z,33